sensor_id;sensor_type;location;lat;lon;timestamp;temperature;humidity
15991;DHT22;8100;50.994;4.538;2023-02-01T00:01:46;6.10;99.90
15991;DHT22;8100;50.994;4.538;2023-02-01T00:04:33;6.20;99.90
15991;DHT22;8100;50.994;4.538;2023-02-01T00:07:20;6.20;99.90
15991;DHT22;8100;50.994;4.538;2023-02-01T00:10:08;6.10;99.90
15991;DHT22;8100;50.994;4.538;2023-02-01T00:12:57;6.20;99.90
15991;DHT22;8100;50.994;4.538;2023-02-01T00:15:44;6.20;99.90
15991;DHT22;8100;50.994;4.538;2023-02-01T00:18:32;6.20;99.90
15991;DHT22;8100;50.994;4.538;2023-02-01T00:21:20;6.20;99.90
15991;DHT22;8100;50.994;4.538;2023-02-01T00:24:09;6.30;99.90
15991;DHT22;8100;50.994;4.538;2023-02-01T00:26:56;6.40;99.90
15991;DHT22;8100;50.994;4.538;2023-02-01T00:29:45;6.50;99.90
15991;DHT22;8100;50.994;4.538;2023-02-01T00:32:32;6.50;99.90
15991;DHT22;8100;50.994;4.538;2023-02-01T00:35:19;6.50;99.90
15991;DHT22;8100;50.994;4.538;2023-02-01T00:38:06;6.60;99.90
15991;DHT22;8100;50.994;4.538;2023-02-01T00:40:53;6.60;99.90
15991;DHT22;8100;50.994;4.538;2023-02-01T00:43:41;6.60;99.90
15991;DHT22;8100;50.994;4.538;2023-02-01T00:46:30;6.50;99.90
15991;DHT22;8100;50.994;4.538;2023-02-01T00:49:17;6.50;99.90
15991;DHT22;8100;50.994;4.538;2023-02-01T00:52:04;6.50;99.90
15991;DHT22;8100;50.994;4.538;2023-02-01T00:54:52;6.40;99.90
15991;DHT22;8100;50.994;4.538;2023-02-01T00:57:39;6.30;99.90
15991;DHT22;8100;50.994;4.538;2023-02-01T01:00:26;6.30;99.90
15991;DHT22;8100;50.994;4.538;2023-02-01T01:03:15;6.30;99.90
15991;DHT22;8100;50.994;4.538;2023-02-01T01:06:06;6.30;99.90
15991;DHT22;8100;50.994;4.538;2023-02-01T01:08:56;6.40;99.90
15991;DHT22;8100;50.994;4.538;2023-02-01T01:11:43;6.40;99.90
15991;DHT22;8100;50.994;4.538;2023-02-01T01:14:31;6.50;99.90
15991;DHT22;8100;50.994;4.538;2023-02-01T01:17:18;6.50;99.90
15991;DHT22;8100;50.994;4.538;2023-02-01T01:20:08;6.50;99.90
15991;DHT22;8100;50.994;4.538;2023-02-01T01:22:56;6.50;99.90
15991;DHT22;8100;50.994;4.538;2023-02-01T01:25:43;6.50;99.90
15991;DHT22;8100;50.994;4.538;2023-02-01T01:28:30;6.50;99.90
15991;DHT22;8100;50.994;4.538;2023-02-01T01:31:18;6.50;99.90
15991;DHT22;8100;50.994;4.538;2023-02-01T01:34:06;6.40;99.90
15991;DHT22;8100;50.994;4.538;2023-02-01T01:36:54;6.40;99.90
15991;DHT22;8100;50.994;4.538;2023-02-01T01:39:41;6.40;99.90
15991;DHT22;8100;50.994;4.538;2023-02-01T01:42:29;6.50;99.90
15991;DHT22;8100;50.994;4.538;2023-02-01T01:45:23;6.50;99.90
15991;DHT22;8100;50.994;4.538;2023-02-01T01:48:13;6.40;99.90
15991;DHT22;8100;50.994;4.538;2023-02-01T01:51:05;6.40;99.90
15991;DHT22;8100;50.994;4.538;2023-02-01T01:54:00;6.50;99.90
15991;DHT22;8100;50.994;4.538;2023-02-01T01:56:51;6.40;99.90
15991;DHT22;8100;50.994;4.538;2023-02-01T01:59:40;6.30;99.90
15991;DHT22;8100;50.994;4.538;2023-02-01T02:02:29;6.20;99.90
15991;DHT22;8100;50.994;4.538;2023-02-01T02:05:18;6.10;99.90
15991;DHT22;8100;50.994;4.538;2023-02-01T02:08:06;6.00;99.90
15991;DHT22;8100;50.994;4.538;2023-02-01T02:10:54;5.90;99.90
15991;DHT22;8100;50.994;4.538;2023-02-01T02:13:50;5.90;99.90
15991;DHT22;8100;50.994;4.538;2023-02-01T02:16:58;5.80;99.90
15991;DHT22;8100;50.994;4.538;2023-02-01T02:23:23;5.80;99.90
15991;DHT22;8100;50.994;4.538;2023-02-01T02:26:35;5.80;99.90
15991;DHT22;8100;50.994;4.538;2023-02-01T02:29:50;5.80;99.90
15991;DHT22;8100;50.994;4.538;2023-02-01T02:36:37;5.60;99.90
15991;DHT22;8100;50.994;4.538;2023-02-01T02:39:32;5.50;99.90
15991;DHT22;8100;50.994;4.538;2023-02-01T02:42:25;5.60;99.90
15991;DHT22;8100;50.994;4.538;2023-02-01T02:45:39;5.60;99.90
15991;DHT22;8100;50.994;4.538;2023-02-01T02:48:51;5.60;99.90
15991;DHT22;8100;50.994;4.538;2023-02-01T02:51:43;5.50;99.90
15991;DHT22;8100;50.994;4.538;2023-02-01T02:54:50;5.50;99.90
15991;DHT22;8100;50.994;4.538;2023-02-01T02:57:41;5.50;99.90
15991;DHT22;8100;50.994;4.538;2023-02-01T03:00:48;5.50;99.90
15991;DHT22;8100;50.994;4.538;2023-02-01T03:03:53;5.50;99.90
15991;DHT22;8100;50.994;4.538;2023-02-01T03:06:56;5.40;99.90
15991;DHT22;8100;50.994;4.538;2023-02-01T03:09:46;5.40;99.90
15991;DHT22;8100;50.994;4.538;2023-02-01T03:12:37;5.40;99.90
15991;DHT22;8100;50.994;4.538;2023-02-01T03:15:49;5.50;99.90
15991;DHT22;8100;50.994;4.538;2023-02-01T03:18:42;5.40;99.90
15991;DHT22;8100;50.994;4.538;2023-02-01T03:21:37;5.40;99.90
15991;DHT22;8100;50.994;4.538;2023-02-01T03:24:30;5.40;99.90
15991;DHT22;8100;50.994;4.538;2023-02-01T03:27:22;5.50;99.90
15991;DHT22;8100;50.994;4.538;2023-02-01T03:30:15;5.50;99.90
15991;DHT22;8100;50.994;4.538;2023-02-01T03:33:06;5.50;99.90
15991;DHT22;8100;50.994;4.538;2023-02-01T03:36:05;5.50;99.90
15991;DHT22;8100;50.994;4.538;2023-02-01T03:39:02;5.50;99.90
15991;DHT22;8100;50.994;4.538;2023-02-01T03:41:53;5.50;99.90
15991;DHT22;8100;50.994;4.538;2023-02-01T03:44:48;5.50;99.90
15991;DHT22;8100;50.994;4.538;2023-02-01T03:47:40;5.50;99.90
15991;DHT22;8100;50.994;4.538;2023-02-01T03:50:28;5.50;99.90
15991;DHT22;8100;50.994;4.538;2023-02-01T03:53:19;5.40;99.90
15991;DHT22;8100;50.994;4.538;2023-02-01T03:56:08;5.40;99.90
15991;DHT22;8100;50.994;4.538;2023-02-01T03:58:58;5.40;99.90
15991;DHT22;8100;50.994;4.538;2023-02-01T04:01:45;5.40;99.90
15991;DHT22;8100;50.994;4.538;2023-02-01T04:04:34;5.30;99.90
15991;DHT22;8100;50.994;4.538;2023-02-01T04:07:21;5.30;99.90
15991;DHT22;8100;50.994;4.538;2023-02-01T04:10:10;5.30;99.90
15991;DHT22;8100;50.994;4.538;2023-02-01T04:12:57;5.30;99.90
15991;DHT22;8100;50.994;4.538;2023-02-01T04:15:46;5.30;99.90
15991;DHT22;8100;50.994;4.538;2023-02-01T04:18:35;5.20;99.90
15991;DHT22;8100;50.994;4.538;2023-02-01T04:21:22;5.30;99.90
15991;DHT22;8100;50.994;4.538;2023-02-01T04:24:10;5.30;99.90
15991;DHT22;8100;50.994;4.538;2023-02-01T04:26:57;5.30;99.90
15991;DHT22;8100;50.994;4.538;2023-02-01T04:29:44;5.20;99.90
15991;DHT22;8100;50.994;4.538;2023-02-01T04:32:33;5.10;99.90
15991;DHT22;8100;50.994;4.538;2023-02-01T04:35:20;5.20;99.90
15991;DHT22;8100;50.994;4.538;2023-02-01T04:38:07;5.10;99.90
15991;DHT22;8100;50.994;4.538;2023-02-01T04:40:55;5.20;99.90
15991;DHT22;8100;50.994;4.538;2023-02-01T04:43:42;5.10;99.90
15991;DHT22;8100;50.994;4.538;2023-02-01T04:46:29;5.20;99.90
15991;DHT22;8100;50.994;4.538;2023-02-01T04:49:18;5.10;99.90
15991;DHT22;8100;50.994;4.538;2023-02-01T04:52:07;5.10;99.90
15991;DHT22;8100;50.994;4.538;2023-02-01T04:54:54;5.10;99.90
15991;DHT22;8100;50.994;4.538;2023-02-01T04:57:43;5.10;99.90
15991;DHT22;8100;50.994;4.538;2023-02-01T05:00:30;5.10;99.90
15991;DHT22;8100;50.994;4.538;2023-02-01T05:03:17;5.10;99.90
15991;DHT22;8100;50.994;4.538;2023-02-01T05:06:06;5.00;99.90
15991;DHT22;8100;50.994;4.538;2023-02-01T05:08:53;5.00;99.90
15991;DHT22;8100;50.994;4.538;2023-02-01T05:11:41;5.00;99.90
15991;DHT22;8100;50.994;4.538;2023-02-01T05:14:46;5.00;99.90
15991;DHT22;8100;50.994;4.538;2023-02-01T05:17:33;5.00;99.90
15991;DHT22;8100;50.994;4.538;2023-02-01T05:20:20;5.00;99.90
15991;DHT22;8100;50.994;4.538;2023-02-01T05:23:09;5.00;99.90
15991;DHT22;8100;50.994;4.538;2023-02-01T05:25:58;4.90;99.90
15991;DHT22;8100;50.994;4.538;2023-02-01T05:28:46;4.90;99.90
15991;DHT22;8100;50.994;4.538;2023-02-01T05:31:33;4.80;99.90
15991;DHT22;8100;50.994;4.538;2023-02-01T05:34:20;4.80;99.90
15991;DHT22;8100;50.994;4.538;2023-02-01T05:37:08;4.80;99.90
15991;DHT22;8100;50.994;4.538;2023-02-01T05:39:56;4.80;99.90
15991;DHT22;8100;50.994;4.538;2023-02-01T05:42:43;4.80;99.90
15991;DHT22;8100;50.994;4.538;2023-02-01T05:45:31;4.70;99.90
15991;DHT22;8100;50.994;4.538;2023-02-01T05:48:18;4.80;99.90
15991;DHT22;8100;50.994;4.538;2023-02-01T05:51:05;4.80;99.90
15991;DHT22;8100;50.994;4.538;2023-02-01T05:53:53;4.80;99.90
15991;DHT22;8100;50.994;4.538;2023-02-01T05:56:41;4.70;99.90
15991;DHT22;8100;50.994;4.538;2023-02-01T05:59:29;4.80;99.90
15991;DHT22;8100;50.994;4.538;2023-02-01T06:02:16;4.80;99.90
15991;DHT22;8100;50.994;4.538;2023-02-01T06:05:04;4.80;99.90
15991;DHT22;8100;50.994;4.538;2023-02-01T06:07:52;4.80;99.90
15991;DHT22;8100;50.994;4.538;2023-02-01T06:10:39;4.80;99.90
15991;DHT22;8100;50.994;4.538;2023-02-01T06:13:28;4.70;99.90
15991;DHT22;8100;50.994;4.538;2023-02-01T06:16:15;4.80;99.90
15991;DHT22;8100;50.994;4.538;2023-02-01T06:19:02;4.70;99.90
15991;DHT22;8100;50.994;4.538;2023-02-01T06:21:49;4.70;99.90
15991;DHT22;8100;50.994;4.538;2023-02-01T06:24:37;4.60;99.90
15991;DHT22;8100;50.994;4.538;2023-02-01T06:27:24;4.60;99.90
15991;DHT22;8100;50.994;4.538;2023-02-01T06:30:13;4.70;99.90
15991;DHT22;8100;50.994;4.538;2023-02-01T06:33:00;4.50;99.90
15991;DHT22;8100;50.994;4.538;2023-02-01T06:35:47;4.50;99.90
15991;DHT22;8100;50.994;4.538;2023-02-01T06:38:35;4.50;99.90
15991;DHT22;8100;50.994;4.538;2023-02-01T06:41:22;4.50;99.90
15991;DHT22;8100;50.994;4.538;2023-02-01T06:44:09;4.40;99.90
15991;DHT22;8100;50.994;4.538;2023-02-01T06:46:58;4.50;99.90
15991;DHT22;8100;50.994;4.538;2023-02-01T06:49:45;4.40;99.90
15991;DHT22;8100;50.994;4.538;2023-02-01T06:52:32;4.50;99.90
15991;DHT22;8100;50.994;4.538;2023-02-01T06:55:20;4.40;99.90
15991;DHT22;8100;50.994;4.538;2023-02-01T06:58:07;4.40;99.90
15991;DHT22;8100;50.994;4.538;2023-02-01T07:00:54;4.50;99.90
15991;DHT22;8100;50.994;4.538;2023-02-01T07:03:46;4.50;99.90
15991;DHT22;8100;50.994;4.538;2023-02-01T07:06:33;4.40;99.90
15991;DHT22;8100;50.994;4.538;2023-02-01T07:09:21;4.50;99.90
15991;DHT22;8100;50.994;4.538;2023-02-01T07:12:08;4.50;99.90
15991;DHT22;8100;50.994;4.538;2023-02-01T07:14:55;4.50;99.90
15991;DHT22;8100;50.994;4.538;2023-02-01T07:17:43;4.60;99.90
15991;DHT22;8100;50.994;4.538;2023-02-01T07:20:33;4.60;99.90
15991;DHT22;8100;50.994;4.538;2023-02-01T07:23:20;4.60;99.90
15991;DHT22;8100;50.994;4.538;2023-02-01T07:26:09;4.50;99.90
15991;DHT22;8100;50.994;4.538;2023-02-01T07:28:58;4.60;99.90
15991;DHT22;8100;50.994;4.538;2023-02-01T07:31:45;4.60;99.90
15991;DHT22;8100;50.994;4.538;2023-02-01T07:34:32;4.70;99.90
15991;DHT22;8100;50.994;4.538;2023-02-01T07:37:22;4.70;99.90
15991;DHT22;8100;50.994;4.538;2023-02-01T07:40:11;4.70;99.90
15991;DHT22;8100;50.994;4.538;2023-02-01T07:42:58;4.70;99.90
15991;DHT22;8100;50.994;4.538;2023-02-01T07:45:50;4.80;99.90
15991;DHT22;8100;50.994;4.538;2023-02-01T07:48:38;4.80;99.90
15991;DHT22;8100;50.994;4.538;2023-02-01T07:51:25;4.80;99.90
15991;DHT22;8100;50.994;4.538;2023-02-01T07:54:14;4.80;99.90
15991;DHT22;8100;50.994;4.538;2023-02-01T07:57:01;4.80;99.90
15991;DHT22;8100;50.994;4.538;2023-02-01T07:59:48;4.90;99.90
15991;DHT22;8100;50.994;4.538;2023-02-01T08:02:53;5.00;99.90
15991;DHT22;8100;50.994;4.538;2023-02-01T08:05:40;5.00;99.90
15991;DHT22;8100;50.994;4.538;2023-02-01T08:08:27;5.10;99.90
15991;DHT22;8100;50.994;4.538;2023-02-01T08:11:16;5.10;99.90
15991;DHT22;8100;50.994;4.538;2023-02-01T08:14:04;5.20;99.90
15991;DHT22;8100;50.994;4.538;2023-02-01T08:16:52;5.20;99.90
15991;DHT22;8100;50.994;4.538;2023-02-01T08:19:39;5.30;99.90
15991;DHT22;8100;50.994;4.538;2023-02-01T08:22:31;5.30;99.90
15991;DHT22;8100;50.994;4.538;2023-02-01T08:25:18;5.40;99.90
15991;DHT22;8100;50.994;4.538;2023-02-01T08:28:07;5.40;99.90
15991;DHT22;8100;50.994;4.538;2023-02-01T08:30:54;5.40;99.90
15991;DHT22;8100;50.994;4.538;2023-02-01T08:33:43;5.40;99.90
15991;DHT22;8100;50.994;4.538;2023-02-01T08:36:31;5.40;99.90
15991;DHT22;8100;50.994;4.538;2023-02-01T08:39:18;5.50;99.90
15991;DHT22;8100;50.994;4.538;2023-02-01T08:42:05;5.50;99.90
15991;DHT22;8100;50.994;4.538;2023-02-01T08:45:11;5.60;99.90
15991;DHT22;8100;50.994;4.538;2023-02-01T08:47:59;5.60;99.90
15991;DHT22;8100;50.994;4.538;2023-02-01T08:50:46;5.50;99.90
15991;DHT22;8100;50.994;4.538;2023-02-01T08:53:34;5.60;99.90
15991;DHT22;8100;50.994;4.538;2023-02-01T08:56:21;5.70;99.90
15991;DHT22;8100;50.994;4.538;2023-02-01T08:59:09;5.70;99.90
15991;DHT22;8100;50.994;4.538;2023-02-01T09:01:57;5.70;99.90
15991;DHT22;8100;50.994;4.538;2023-02-01T09:04:45;5.70;99.90
15991;DHT22;8100;50.994;4.538;2023-02-01T09:07:32;5.70;99.90
15991;DHT22;8100;50.994;4.538;2023-02-01T09:10:19;5.70;99.90
15991;DHT22;8100;50.994;4.538;2023-02-01T09:13:07;5.80;99.90
15991;DHT22;8100;50.994;4.538;2023-02-01T09:15:54;5.80;99.90
15991;DHT22;8100;50.994;4.538;2023-02-01T09:18:43;5.90;99.90
15991;DHT22;8100;50.994;4.538;2023-02-01T09:21:30;6.00;99.90
15991;DHT22;8100;50.994;4.538;2023-02-01T09:24:17;6.10;99.90
15991;DHT22;8100;50.994;4.538;2023-02-01T09:27:04;6.10;99.90
15991;DHT22;8100;50.994;4.538;2023-02-01T09:29:52;6.10;99.90
15991;DHT22;8100;50.994;4.538;2023-02-01T09:32:39;6.20;99.90
15991;DHT22;8100;50.994;4.538;2023-02-01T09:35:27;6.30;99.90
15991;DHT22;8100;50.994;4.538;2023-02-01T09:38:14;6.30;99.90
15991;DHT22;8100;50.994;4.538;2023-02-01T09:41:10;6.30;99.90
15991;DHT22;8100;50.994;4.538;2023-02-01T09:44:11;6.40;99.90
15991;DHT22;8100;50.994;4.538;2023-02-01T09:47:02;6.40;99.90
15991;DHT22;8100;50.994;4.538;2023-02-01T09:49:55;6.50;99.90
15991;DHT22;8100;50.994;4.538;2023-02-01T09:52:47;6.60;99.90
15991;DHT22;8100;50.994;4.538;2023-02-01T09:55:40;6.60;99.90
15991;DHT22;8100;50.994;4.538;2023-02-01T09:58:33;6.70;97.70
15991;DHT22;8100;50.994;4.538;2023-02-01T10:01:24;6.70;91.90
15991;DHT22;8100;50.994;4.538;2023-02-01T10:04:13;6.80;95.80
15991;DHT22;8100;50.994;4.538;2023-02-01T10:07:12;6.80;71.60
15991;DHT22;8100;50.994;4.538;2023-02-01T10:10:06;6.90;77.80
15991;DHT22;8100;50.994;4.538;2023-02-01T10:13:14;7.00;58.80
15991;DHT22;8100;50.994;4.538;2023-02-01T10:16:19;7.10;58.50
15991;DHT22;8100;50.994;4.538;2023-02-01T10:19:22;7.10;62.10
15991;DHT22;8100;50.994;4.538;2023-02-01T10:22:32;7.20;30.30
15991;DHT22;8100;50.994;4.538;2023-02-01T10:25:24;7.30;43.30
15991;DHT22;8100;50.994;4.538;2023-02-01T10:28:15;7.40;27.30
15991;DHT22;8100;50.994;4.538;2023-02-01T10:31:03;7.40;29.70
15991;DHT22;8100;50.994;4.538;2023-02-01T10:33:56;7.50;24.60
15991;DHT22;8100;50.994;4.538;2023-02-01T10:36:52;7.60;15.30
15991;DHT22;8100;50.994;4.538;2023-02-01T10:39:40;7.70;11.40
15991;DHT22;8100;50.994;4.538;2023-02-01T10:42:29;7.80;1.00
15991;DHT22;8100;50.994;4.538;2023-02-01T10:45:21;7.80;1.00
15991;DHT22;8100;50.994;4.538;2023-02-01T10:48:09;7.90;1.00
15991;DHT22;8100;50.994;4.538;2023-02-01T10:51:00;8.00;1.00
15991;DHT22;8100;50.994;4.538;2023-02-01T10:53:50;8.00;1.00
15991;DHT22;8100;50.994;4.538;2023-02-01T10:56:39;8.10;1.00
15991;DHT22;8100;50.994;4.538;2023-02-01T10:59:29;8.20;1.00
15991;DHT22;8100;50.994;4.538;2023-02-01T11:02:25;8.40;1.00
15991;DHT22;8100;50.994;4.538;2023-02-01T11:05:13;8.50;1.00
15991;DHT22;8100;50.994;4.538;2023-02-01T11:08:02;8.60;1.00
15991;DHT22;8100;50.994;4.538;2023-02-01T11:10:58;8.70;1.00
15991;DHT22;8100;50.994;4.538;2023-02-01T11:13:52;8.70;1.00
15991;DHT22;8100;50.994;4.538;2023-02-01T11:16:47;8.60;1.00
15991;DHT22;8100;50.994;4.538;2023-02-01T11:19:34;8.50;1.00
15991;DHT22;8100;50.994;4.538;2023-02-01T11:22:22;8.50;1.00
15991;DHT22;8100;50.994;4.538;2023-02-01T11:25:14;8.40;1.00
15991;DHT22;8100;50.994;4.538;2023-02-01T11:28:02;8.40;1.00
15991;DHT22;8100;50.994;4.538;2023-02-01T11:30:52;8.30;1.00
15991;DHT22;8100;50.994;4.538;2023-02-01T11:33:47;8.30;1.00
15991;DHT22;8100;50.994;4.538;2023-02-01T11:36:36;8.60;1.00
15991;DHT22;8100;50.994;4.538;2023-02-01T11:39:26;8.80;1.00
15991;DHT22;8100;50.994;4.538;2023-02-01T11:42:17;9.20;1.00
15991;DHT22;8100;50.994;4.538;2023-02-01T11:45:18;9.40;99.90
15991;DHT22;8100;50.994;4.538;2023-02-01T11:48:08;9.20;99.90
15991;DHT22;8100;50.994;4.538;2023-02-01T11:51:15;9.10;99.90
15991;DHT22;8100;50.994;4.538;2023-02-01T11:54:22;9.10;99.90
15991;DHT22;8100;50.994;4.538;2023-02-01T11:57:35;9.20;99.90
15991;DHT22;8100;50.994;4.538;2023-02-01T12:00:55;9.20;99.90
15991;DHT22;8100;50.994;4.538;2023-02-01T12:07:14;9.30;99.90
15991;DHT22;8100;50.994;4.538;2023-02-01T12:10:15;9.20;99.90
15991;DHT22;8100;50.994;4.538;2023-02-01T12:13:14;9.20;99.90
15991;DHT22;8100;50.994;4.538;2023-02-01T12:16:14;9.10;99.90
15991;DHT22;8100;50.994;4.538;2023-02-01T12:19:28;9.20;99.90
15991;DHT22;8100;50.994;4.538;2023-02-01T12:22:32;9.10;99.90
15991;DHT22;8100;50.994;4.538;2023-02-01T12:25:28;9.10;99.90
15991;DHT22;8100;50.994;4.538;2023-02-01T12:28:40;9.10;99.90
15991;DHT22;8100;50.994;4.538;2023-02-01T12:31:45;9.10;99.90
15991;DHT22;8100;50.994;4.538;2023-02-01T12:38:02;9.10;99.90
15991;DHT22;8100;50.994;4.538;2023-02-01T12:41:04;9.10;99.90
15991;DHT22;8100;50.994;4.538;2023-02-01T12:43:55;9.00;99.90
15991;DHT22;8100;50.994;4.538;2023-02-01T12:46:47;9.00;99.90
15991;DHT22;8100;50.994;4.538;2023-02-01T12:49:44;9.10;99.90
15991;DHT22;8100;50.994;4.538;2023-02-01T12:52:37;9.20;99.90
15991;DHT22;8100;50.994;4.538;2023-02-01T12:55:35;9.20;99.90
15991;DHT22;8100;50.994;4.538;2023-02-01T12:58:26;9.30;99.90
15991;DHT22;8100;50.994;4.538;2023-02-01T13:01:18;9.30;99.90
15991;DHT22;8100;50.994;4.538;2023-02-01T13:04:13;9.30;99.90
15991;DHT22;8100;50.994;4.538;2023-02-01T13:07:09;9.20;99.90
15991;DHT22;8100;50.994;4.538;2023-02-01T13:10:02;9.20;99.90
15991;DHT22;8100;50.994;4.538;2023-02-01T13:12:54;9.30;99.90
15991;DHT22;8100;50.994;4.538;2023-02-01T13:15:46;9.30;99.90
15991;DHT22;8100;50.994;4.538;2023-02-01T13:18:36;9.40;99.90
15991;DHT22;8100;50.994;4.538;2023-02-01T13:21:27;9.50;99.90
15991;DHT22;8100;50.994;4.538;2023-02-01T13:24:29;9.50;99.90
15991;DHT22;8100;50.994;4.538;2023-02-01T13:27:18;9.50;99.90
15991;DHT22;8100;50.994;4.538;2023-02-01T13:30:12;9.60;99.90
15991;DHT22;8100;50.994;4.538;2023-02-01T13:33:18;9.60;99.90
15991;DHT22;8100;50.994;4.538;2023-02-01T13:36:37;9.70;99.90
15991;DHT22;8100;50.994;4.538;2023-02-01T13:39:47;9.70;99.90
15991;DHT22;8100;50.994;4.538;2023-02-01T13:42:45;9.70;99.90
15991;DHT22;8100;50.994;4.538;2023-02-01T13:45:42;9.60;99.90
15991;DHT22;8100;50.994;4.538;2023-02-01T13:48:36;9.60;99.90
15991;DHT22;8100;50.994;4.538;2023-02-01T13:51:47;9.60;99.90
15991;DHT22;8100;50.994;4.538;2023-02-01T13:54:38;9.50;99.90
15991;DHT22;8100;50.994;4.538;2023-02-01T13:57:35;9.60;99.90
15991;DHT22;8100;50.994;4.538;2023-02-01T14:00:25;9.60;99.90
15991;DHT22;8100;50.994;4.538;2023-02-01T14:03:20;9.60;99.90
15991;DHT22;8100;50.994;4.538;2023-02-01T14:06:34;9.60;99.90
15991;DHT22;8100;50.994;4.538;2023-02-01T14:09:32;9.50;99.90
15991;DHT22;8100;50.994;4.538;2023-02-01T14:12:42;9.50;99.90
15991;DHT22;8100;50.994;4.538;2023-02-01T14:15:29;9.50;99.90
15991;DHT22;8100;50.994;4.538;2023-02-01T14:19:01;9.50;99.90
15991;DHT22;8100;50.994;4.538;2023-02-01T14:21:50;9.50;99.90
15991;DHT22;8100;50.994;4.538;2023-02-01T14:24:50;9.50;99.90
15991;DHT22;8100;50.994;4.538;2023-02-01T14:27:40;9.50;99.90
15991;DHT22;8100;50.994;4.538;2023-02-01T14:30:27;9.50;99.90
15991;DHT22;8100;50.994;4.538;2023-02-01T14:33:22;9.40;99.90
15991;DHT22;8100;50.994;4.538;2023-02-01T14:36:13;9.40;99.90
15991;DHT22;8100;50.994;4.538;2023-02-01T14:39:01;9.30;99.90
15991;DHT22;8100;50.994;4.538;2023-02-01T14:41:54;9.30;99.90
15991;DHT22;8100;50.994;4.538;2023-02-01T14:44:42;9.30;99.90
15991;DHT22;8100;50.994;4.538;2023-02-01T14:47:32;9.30;99.90
15991;DHT22;8100;50.994;4.538;2023-02-01T14:50:29;9.40;99.90
15991;DHT22;8100;50.994;4.538;2023-02-01T14:53:21;9.30;99.90
15991;DHT22;8100;50.994;4.538;2023-02-01T14:56:14;9.20;99.90
15991;DHT22;8100;50.994;4.538;2023-02-01T14:59:08;9.20;99.90
15991;DHT22;8100;50.994;4.538;2023-02-01T15:02:02;9.20;99.90
15991;DHT22;8100;50.994;4.538;2023-02-01T15:05:12;9.20;99.90
15991;DHT22;8100;50.994;4.538;2023-02-01T15:08:14;9.10;99.90
15991;DHT22;8100;50.994;4.538;2023-02-01T15:11:08;9.00;99.90
15991;DHT22;8100;50.994;4.538;2023-02-01T15:13:57;9.00;99.90
15991;DHT22;8100;50.994;4.538;2023-02-01T15:16:46;9.00;99.90
15991;DHT22;8100;50.994;4.538;2023-02-01T15:19:39;9.00;99.90
15991;DHT22;8100;50.994;4.538;2023-02-01T15:22:39;9.00;99.90
15991;DHT22;8100;50.994;4.538;2023-02-01T15:25:28;9.00;99.90
15991;DHT22;8100;50.994;4.538;2023-02-01T15:28:17;9.00;99.90
15991;DHT22;8100;50.994;4.538;2023-02-01T15:31:05;9.00;99.90
15991;DHT22;8100;50.994;4.538;2023-02-01T15:33:56;8.90;99.90
15991;DHT22;8100;50.994;4.538;2023-02-01T15:36:45;8.90;99.90
15991;DHT22;8100;50.994;4.538;2023-02-01T15:39:32;8.90;99.90
15991;DHT22;8100;50.994;4.538;2023-02-01T15:42:21;8.90;99.90
15991;DHT22;8100;50.994;4.538;2023-02-01T15:45:17;8.90;99.90
15991;DHT22;8100;50.994;4.538;2023-02-01T15:48:05;8.90;99.90
15991;DHT22;8100;50.994;4.538;2023-02-01T15:50:53;8.80;99.90
15991;DHT22;8100;50.994;4.538;2023-02-01T15:53:45;8.80;99.90
15991;DHT22;8100;50.994;4.538;2023-02-01T15:56:34;8.80;99.90
15991;DHT22;8100;50.994;4.538;2023-02-01T15:59:25;8.80;99.90
15991;DHT22;8100;50.994;4.538;2023-02-01T16:02:41;8.70;99.90
15991;DHT22;8100;50.994;4.538;2023-02-01T16:05:32;8.70;99.90
15991;DHT22;8100;50.994;4.538;2023-02-01T16:08:23;8.70;99.90
15991;DHT22;8100;50.994;4.538;2023-02-01T16:11:23;8.70;99.90
15991;DHT22;8100;50.994;4.538;2023-02-01T16:14:11;8.70;99.90
15991;DHT22;8100;50.994;4.538;2023-02-01T16:16:58;8.60;99.90
15991;DHT22;8100;50.994;4.538;2023-02-01T16:19:47;8.60;99.90
15991;DHT22;8100;50.994;4.538;2023-02-01T16:22:34;8.60;99.90
15991;DHT22;8100;50.994;4.538;2023-02-01T16:25:21;8.70;99.90
15991;DHT22;8100;50.994;4.538;2023-02-01T16:28:09;8.60;99.90
15991;DHT22;8100;50.994;4.538;2023-02-01T16:30:56;8.60;99.90
15991;DHT22;8100;50.994;4.538;2023-02-01T16:33:43;8.60;99.90
15991;DHT22;8100;50.994;4.538;2023-02-01T16:36:32;8.60;1.00
15991;DHT22;8100;50.994;4.538;2023-02-01T16:39:20;8.60;99.90
15991;DHT22;8100;50.994;4.538;2023-02-01T16:42:10;8.60;99.90
15991;DHT22;8100;50.994;4.538;2023-02-01T16:44:58;8.60;99.90
15991;DHT22;8100;50.994;4.538;2023-02-01T16:47:48;8.60;1.00
15991;DHT22;8100;50.994;4.538;2023-02-01T16:50:37;8.60;1.00
15991;DHT22;8100;50.994;4.538;2023-02-01T16:53:27;8.60;1.00
15991;DHT22;8100;50.994;4.538;2023-02-01T16:56:16;8.60;1.00
15991;DHT22;8100;50.994;4.538;2023-02-01T16:59:04;8.60;1.00
15991;DHT22;8100;50.994;4.538;2023-02-01T17:01:52;8.50;1.00
15991;DHT22;8100;50.994;4.538;2023-02-01T17:04:40;8.50;1.00
15991;DHT22;8100;50.994;4.538;2023-02-01T17:07:27;8.50;1.00
15991;DHT22;8100;50.994;4.538;2023-02-01T17:10:22;8.50;1.00
15991;DHT22;8100;50.994;4.538;2023-02-01T17:13:13;8.50;1.00
15991;DHT22;8100;50.994;4.538;2023-02-01T17:16:03;8.50;1.00
15991;DHT22;8100;50.994;4.538;2023-02-01T17:18:55;8.40;1.00
15991;DHT22;8100;50.994;4.538;2023-02-01T17:21:45;8.40;1.00
15991;DHT22;8100;50.994;4.538;2023-02-01T17:24:34;8.50;1.00
15991;DHT22;8100;50.994;4.538;2023-02-01T17:27:22;8.40;1.00
15991;DHT22;8100;50.994;4.538;2023-02-01T17:30:11;8.40;1.00
15991;DHT22;8100;50.994;4.538;2023-02-01T17:32:58;8.40;1.00
15991;DHT22;8100;50.994;4.538;2023-02-01T17:35:45;8.40;1.00
15991;DHT22;8100;50.994;4.538;2023-02-01T17:38:35;8.40;1.00
15991;DHT22;8100;50.994;4.538;2023-02-01T17:41:22;8.40;1.00
15991;DHT22;8100;50.994;4.538;2023-02-01T17:44:11;8.40;1.00
15991;DHT22;8100;50.994;4.538;2023-02-01T17:46:58;8.40;1.00
15991;DHT22;8100;50.994;4.538;2023-02-01T17:49:45;8.30;1.00
15991;DHT22;8100;50.994;4.538;2023-02-01T17:52:36;8.30;1.00
15991;DHT22;8100;50.994;4.538;2023-02-01T17:55:24;8.40;1.00
15991;DHT22;8100;50.994;4.538;2023-02-01T17:58:13;8.30;1.00
15991;DHT22;8100;50.994;4.538;2023-02-01T18:01:02;8.30;1.00
15991;DHT22;8100;50.994;4.538;2023-02-01T18:03:49;8.30;1.00
15991;DHT22;8100;50.994;4.538;2023-02-01T18:06:37;8.30;1.00
15991;DHT22;8100;50.994;4.538;2023-02-01T18:09:24;8.20;1.00
15991;DHT22;8100;50.994;4.538;2023-02-01T18:12:16;8.10;1.00
15991;DHT22;8100;50.994;4.538;2023-02-01T18:15:16;7.90;92.80
15991;DHT22;8100;50.994;4.538;2023-02-01T18:18:05;7.70;99.90
15991;DHT22;8100;50.994;4.538;2023-02-01T18:20:52;7.80;99.90
15991;DHT22;8100;50.994;4.538;2023-02-01T18:23:40;7.70;99.90
15991;DHT22;8100;50.994;4.538;2023-02-01T18:26:27;7.80;99.90
15991;DHT22;8100;50.994;4.538;2023-02-01T18:29:14;7.80;99.90
15991;DHT22;8100;50.994;4.538;2023-02-01T18:32:01;7.90;99.90
15991;DHT22;8100;50.994;4.538;2023-02-01T18:34:50;7.90;1.00
15991;DHT22;8100;50.994;4.538;2023-02-01T18:37:37;7.90;1.00
15991;DHT22;8100;50.994;4.538;2023-02-01T18:40:27;8.00;1.00
15991;DHT22;8100;50.994;4.538;2023-02-01T18:43:16;8.00;1.00
15991;DHT22;8100;50.994;4.538;2023-02-01T18:46:03;8.10;1.00
15991;DHT22;8100;50.994;4.538;2023-02-01T18:48:51;8.10;1.00
15991;DHT22;8100;50.994;4.538;2023-02-01T18:51:40;8.10;1.00
15991;DHT22;8100;50.994;4.538;2023-02-01T18:54:29;8.10;1.00
15991;DHT22;8100;50.994;4.538;2023-02-01T18:57:16;8.10;1.00